Time;durP1;ratioP1;P1;durP2;ratioP2;P2;SDS_P1;SDS_P2;PMS_P1;PMS_P2;Temp;Humidity;BMP_temperature;BMP_pressure;BME280_temperature;BME280_humidity;BME280_pressure;Samples;Min_cycle;Max_cycle;Signal;HPM_P1;HPM_P2
2021/06/28 00:02:04;;;;;;;;;;;21.40;72.30;;;;;;5034614;28;1155;-70
2021/06/28 00:04:30;;;;;;;;;;;21.40;72.30;;;;;;5016576;28;1477;-71
2021/06/28 00:06:56;;;;;;;;;;;21.40;72.40;;;;;;4999628;28;1957;-71
2021/06/28 00:09:21;;;;;;;;;;;21.40;72.30;;;;;;4996952;28;1649;-71
2021/06/28 00:11:47;;;;;;;;;;;21.40;72.30;;;;;;5030596;28;1153;-70
2021/06/28 00:14:12;;;;;;;;;;;21.40;72.30;;;;;;5016155;28;1684;-70
2021/06/28 00:16:38;;;;;;;;;;;21.40;72.40;;;;;;5034199;28;1407;-71
2021/06/28 00:19:03;;;;;;;;;;;21.40;72.40;;;;;;5032685;28;1053;-70
2021/06/28 00:21:29;;;;;;;;;;;21.40;72.30;;;;;;5017100;28;1417;-71
2021/06/28 00:23:55;;;;;;;;;;;21.40;72.30;;;;;;5016116;28;1387;-70
2021/06/28 00:26:20;;;;;;;;;;;21.40;72.40;;;;;;5034228;28;1902;-70
2021/06/28 00:28:45;;;;;;;;;;;21.40;72.40;;;;;;5034091;28;1422;-70
2021/06/28 00:31:11;;;;;;;;;;;21.40;72.30;;;;;;5034166;28;1430;-71
2021/06/28 00:33:36;;;;;;;;;;;21.40;72.30;;;;;;5034264;28;1648;-70
2021/06/28 00:36:02;;;;;;;;;;;21.40;72.40;;;;;;5033988;28;1450;-70
2021/06/28 00:38:27;;;;;;;;;;;21.40;72.40;;;;;;5034261;28;1177;-70
2021/06/28 00:40:53;;;;;;;;;;;21.40;72.30;;;;;;5033686;28;1346;-71
2021/06/28 00:43:18;;;;;;;;;;;21.40;72.40;;;;;;5033107;28;1450;-71
2021/06/28 00:45:44;;;;;;;;;;;21.40;72.40;;;;;;5015877;28;1949;-70
2021/06/28 00:48:13;;;;;;;;;;;21.40;72.40;;;;;;5016192;28;1580;-70
2021/06/28 00:50:40;;;;;;;;;;;21.40;72.40;;;;;;5034240;28;1689;-70
2021/06/28 00:53:06;;;;;;;;;;;21.40;72.40;;;;;;5032817;28;1432;-70
2021/06/28 00:55:32;;;;;;;;;;;21.40;72.40;;;;;;5033806;28;1681;-70
2021/06/28 00:57:57;;;;;;;;;;;21.40;72.40;;;;;;5015612;28;1674;-71
2021/06/28 01:00:23;;;;;;;;;;;21.40;72.40;;;;;;5033594;28;1833;-71
2021/06/28 01:02:48;;;;;;;;;;;21.40;72.40;;;;;;5032804;28;1429;-69
2021/06/28 01:05:18;;;;;;;;;;;21.40;72.30;;;;;;5015728;28;1961;-71
2021/06/28 01:07:43;;;;;;;;;;;21.40;72.30;;;;;;5014188;28;1391;-70
2021/06/28 01:10:09;;;;;;;;;;;21.40;72.40;;;;;;5030366;28;1267;-70
2021/06/28 01:12:34;;;;;;;;;;;21.40;72.40;;;;;;5013714;28;1241;-69
2021/06/28 01:15:00;;;;;;;;;;;21.40;72.40;;;;;;5014271;28;1237;-71
2021/06/28 01:17:26;;;;;;;;;;;21.30;72.30;;;;;;5033572;28;1264;-71
2021/06/28 01:20:02;;;;;;;;;;;21.40;72.40;;;;;;5032093;28;1272;-69
2021/06/28 01:22:28;;;;;;;;;;;21.40;72.40;;;;;;5012661;28;1048;-72
2021/06/28 01:24:57;;;;;;;;;;;21.40;72.40;;;;;;5032179;28;1918;-72
2021/06/28 01:27:22;;;;;;;;;;;21.40;72.40;;;;;;5011435;28;1301;-71
2021/06/28 01:29:48;;;;;;;;;;;21.40;72.40;;;;;;5015962;28;1236;-70
2021/06/28 01:32:13;;;;;;;;;;;21.40;72.40;;;;;;5013905;28;1213;-69
2021/06/28 01:34:39;;;;;;;;;;;21.40;72.40;;;;;;5013431;28;1361;-69
2021/06/28 01:37:23;;;;;;;;;;;21.40;72.40;;;;;;5032826;28;1276;-71
2021/06/28 01:39:49;;;;;;;;;;;21.40;72.40;;;;;;5033203;28;1651;-70
2021/06/28 01:42:14;;;;;;;;;;;21.40;72.40;;;;;;5031348;28;1193;-68
2021/06/28 01:44:40;;;;;;;;;;;21.40;72.40;;;;;;5012884;28;1899;-71
2021/06/28 01:47:05;;;;;;;;;;;21.40;72.40;;;;;;5032576;28;1258;-71
2021/06/28 01:49:31;;;;;;;;;;;21.40;72.40;;;;;;5032814;28;1421;-71
2021/06/28 01:51:56;;;;;;;;;;;21.40;72.40;;;;;;5015068;28;1651;-72
2021/06/28 01:54:21;;;;;;;;;;;21.40;72.50;;;;;;5031570;28;1738;-72
2021/06/28 01:56:47;;;;;;;;;;;21.40;72.40;;;;;;5032942;28;1274;-71
2021/06/28 01:59:12;;;;;;;;;;;21.40;72.40;;;;;;5032510;28;1679;-71
2021/06/28 02:01:38;;;;;;;;;;;21.40;72.50;;;;;;5032966;28;1410;-72
2021/06/28 02:04:04;;;;;;;;;;;21.40;72.40;;;;;;5014088;28;1223;-71
2021/06/28 02:06:29;;;;;;;;;;;21.40;72.40;;;;;;5032966;28;1894;-71
2021/06/28 02:08:55;;;;;;;;;;;21.40;72.50;;;;;;5014673;28;1401;-71
2021/06/28 02:11:20;;;;;;;;;;;21.40;72.50;;;;;;5032675;28;1335;-71
2021/06/28 02:13:45;;;;;;;;;;;21.40;72.50;;;;;;5031525;28;1459;-71
2021/06/28 02:16:11;;;;;;;;;;;21.40;73.20;;;;;;5032385;28;1420;-70
2021/06/28 02:18:36;;;;;;;;;;;21.40;72.50;;;;;;5032387;28;1459;-70
2021/06/28 02:21:02;;;;;;;;;;;21.40;72.50;;;;;;5032705;28;1386;-70
2021/06/28 02:23:29;;;;;;;;;;;21.40;72.50;;;;;;5032524;28;929;-70
2021/06/28 02:25:56;;;;;;;;;;;21.40;72.50;;;;;;5033383;28;1914;-69
2021/06/28 02:28:22;;;;;;;;;;;21.40;72.50;;;;;;5034558;28;1199;-69
2021/06/28 02:30:47;;;;;;;;;;;21.40;73.20;;;;;;5034121;28;1144;-70
2021/06/28 02:33:13;;;;;;;;;;;21.30;72.40;;;;;;5051403;28;1072;-70
2021/06/28 02:35:38;;;;;;;;;;;21.30;72.40;;;;;;5051738;28;1385;-70
2021/06/28 02:38:04;;;;;;;;;;;21.40;73.20;;;;;;5033818;28;1171;-70
2021/06/28 02:40:29;;;;;;;;;;;21.30;72.40;;;;;;5019762;28;1347;-70
2021/06/28 02:42:54;;;;;;;;;;;21.30;72.40;;;;;;5036168;28;1172;-70
2021/06/28 02:45:20;;;;;;;;;;;21.30;72.40;;;;;;5036009;28;1969;-70
2021/06/28 02:47:45;;;;;;;;;;;21.30;72.40;;;;;;5035952;28;1287;-70
2021/06/28 02:50:12;;;;;;;;;;;21.30;72.50;;;;;;5036092;28;1061;-70
2021/06/28 02:52:37;;;;;;;;;;;21.40;72.60;;;;;;5017984;28;1100;-69
2021/06/28 02:55:03;;;;;;;;;;;21.30;72.40;;;;;;5017885;28;1096;-70
2021/06/28 02:57:29;;;;;;;;;;;21.30;72.40;;;;;;5018001;28;1269;-70
2021/06/28 02:59:54;;;;;;;;;;;21.30;72.50;;;;;;5035674;28;1068;-69
2021/06/28 03:02:19;;;;;;;;;;;21.30;72.40;;;;;;5035612;28;1159;-70
2021/06/28 03:04:45;;;;;;;;;;;21.30;72.40;;;;;;5035097;28;1962;-70
2021/06/28 03:07:10;;;;;;;;;;;21.30;72.50;;;;;;5017159;28;1282;-71
2021/06/28 03:09:36;;;;;;;;;;;21.30;72.50;;;;;;5035592;28;1057;-69
2021/06/28 03:12:01;;;;;;;;;;;21.30;72.50;;;;;;5035349;28;1183;-69
2021/06/28 03:14:27;;;;;;;;;;;21.30;72.50;;;;;;5034509;28;1127;-69
2021/06/28 03:16:52;;;;;;;;;;;21.30;72.50;;;;;;5035159;28;1346;-68
2021/06/28 03:19:17;;;;;;;;;;;21.30;72.50;;;;;;5017897;28;1324;-69
2021/06/28 03:21:43;;;;;;;;;;;21.30;72.50;;;;;;5035564;28;1081;-69
2021/06/28 03:24:08;;;;;;;;;;;21.30;72.50;;;;;;5034142;28;1124;-69
2021/06/28 03:26:34;;;;;;;;;;;21.30;72.50;;;;;;5035429;28;1906;-69
2021/06/28 03:28:59;;;;;;;;;;;21.30;72.50;;;;;;4997226;28;1195;-69
2021/06/28 03:31:27;;;;;;;;;;;21.30;72.50;;;;;;5031950;28;1105;-69
2021/06/28 03:33:52;;;;;;;;;;;21.30;72.50;;;;;;5034189;28;1073;-68
2021/06/28 03:36:17;;;;;;;;;;;21.30;72.50;;;;;;5034947;28;1286;-69
2021/06/28 03:38:43;;;;;;;;;;;21.30;72.50;;;;;;5034583;28;1072;-70
2021/06/28 03:41:08;;;;;;;;;;;21.30;72.50;;;;;;5017440;28;1239;-71
2021/06/28 03:43:34;;;;;;;;;;;21.40;72.50;;;;;;5033597;28;1096;-71
2021/06/28 03:45:59;;;;;;;;;;;21.30;72.50;;;;;;5034763;28;1910;-70
2021/06/28 03:48:25;;;;;;;;;;;21.30;72.60;;;;;;5034833;28;1167;-70
2021/06/28 03:50:53;;;;;;;;;;;21.30;72.50;;;;;;5034894;28;1140;-71
2021/06/28 03:53:18;;;;;;;;;;;21.30;72.50;;;;;;5033319;28;1118;-71
2021/06/28 03:55:43;;;;;;;;;;;21.30;72.50;;;;;;5034771;28;1272;-68
2021/06/28 03:58:09;;;;;;;;;;;21.30;72.50;;;;;;5034459;28;1143;-68
2021/06/28 04:00:34;;;;;;;;;;;21.30;72.50;;;;;;5034530;28;1253;-68
2021/06/28 04:03:01;;;;;;;;;;;21.30;72.50;;;;;;5033691;28;1069;-68
2021/06/28 04:05:27;;;;;;;;;;;21.30;72.50;;;;;;5016226;28;1906;-68
2021/06/28 04:07:52;;;;;;;;;;;21.30;72.50;;;;;;4996880;28;1125;-68
2021/06/28 04:10:19;;;;;;;;;;;21.30;72.50;;;;;;5026908;28;1103;-68
2021/06/28 04:12:45;;;;;;;;;;;21.30;72.50;;;;;;5016209;28;1138;-68
2021/06/28 04:15:11;;;;;;;;;;;21.30;72.50;;;;;;5047235;28;1112;-69
2021/06/28 04:17:37;;;;;;;;;;;21.30;72.50;;;;;;5054169;28;1273;-70
2021/06/28 04:20:03;;;;;;;;;;;21.30;72.50;;;;;;5053698;28;1111;-69
2021/06/28 04:22:28;;;;;;;;;;;21.30;73.30;;;;;;5054171;28;1076;-69
2021/06/28 04:24:54;;;;;;;;;;;21.40;72.60;;;;;;5053280;28;1906;-69
2021/06/28 04:27:19;;;;;;;;;;;21.40;72.60;;;;;;5053728;28;1166;-69
2021/06/28 04:29:45;;;;;;;;;;;21.30;72.50;;;;;;5053238;28;1091;-69
2021/06/28 04:32:10;;;;;;;;;;;21.30;72.50;;;;;;5053964;28;1073;-68
2021/06/28 04:34:36;;;;;;;;;;;21.30;72.50;;;;;;5053216;28;1087;-69
2021/06/28 04:37:01;;;;;;;;;;;21.30;72.60;;;;;;5053315;28;1216;-69
2021/06/28 04:39:26;;;;;;;;;;;21.30;72.50;;;;;;5048270;28;1111;-69
2021/06/28 04:41:52;;;;;;;;;;;21.30;72.50;;;;;;5033708;28;1100;-69
2021/06/28 04:44:17;;;;;;;;;;;21.30;72.60;;;;;;5015203;28;1112;-69
2021/06/28 04:46:45;;;;;;;;;;;21.30;72.60;;;;;;5033635;28;1899;-69
2021/06/28 04:49:11;;;;;;;;;;;21.30;72.60;;;;;;5033462;28;1065;-69
2021/06/28 04:51:39;;;;;;;;;;;21.30;72.60;;;;;;5033500;28;1147;-69
2021/06/28 04:54:05;;;;;;;;;;;21.30;72.60;;;;;;4998063;28;1362;-70
2021/06/28 04:56:30;;;;;;;;;;;21.30;72.60;;;;;;5016135;28;1398;-69
2021/06/28 04:58:55;;;;;;;;;;;21.30;72.50;;;;;;5033250;28;1120;-69
2021/06/28 05:01:21;;;;;;;;;;;21.30;72.50;;;;;;5033739;28;1093;-70
2021/06/28 05:03:46;;;;;;;;;;;21.30;72.50;;;;;;5014078;28;1110;-69
2021/06/28 05:06:12;;;;;;;;;;;21.30;72.50;;;;;;5033176;28;1977;-69
2021/06/28 05:08:37;;;;;;;;;;;21.30;72.60;;;;;;5033201;28;1132;-68
2021/06/28 05:11:02;;;;;;;;;;;21.30;72.60;;;;;;5033646;28;1159;-69
2021/06/28 05:13:28;;;;;;;;;;;21.30;72.60;;;;;;5021734;28;1850;-68
2021/06/28 05:15:53;;;;;;;;;;;21.30;72.60;;;;;;5016341;28;1795;-69
2021/06/28 05:18:19;;;;;;;;;;;21.30;72.60;;;;;;5024425;28;1151;-71
2021/06/28 05:20:44;;;;;;;;;;;21.30;72.60;;;;;;5034226;28;1095;-69
2021/06/28 05:23:10;;;;;;;;;;;21.30;72.60;;;;;;5031669;28;1123;-70
2021/06/28 05:25:35;;;;;;;;;;;21.30;72.60;;;;;;5032363;28;1906;-70
2021/06/28 05:28:00;;;;;;;;;;;21.30;72.60;;;;;;5015541;28;1121;-69
2021/06/28 05:30:26;;;;;;;;;;;21.30;72.60;;;;;;5032773;28;1171;-70
2021/06/28 05:32:51;;;;;;;;;;;21.30;72.60;;;;;;5032056;28;1395;-69
2021/06/28 05:35:17;;;;;;;;;;;21.30;72.80;;;;;;5033022;28;1053;-68
2021/06/28 05:37:42;;;;;;;;;;;21.30;72.60;;;;;;5031702;28;1172;-68
2021/06/28 05:40:08;;;;;;;;;;;21.30;72.70;;;;;;5031971;28;1096;-68
2021/06/28 05:42:33;;;;;;;;;;;21.30;72.60;;;;;;5015079;28;1089;-68
2021/06/28 05:44:59;;;;;;;;;;;21.30;72.60;;;;;;5032008;28;1967;-69
2021/06/28 05:47:24;;;;;;;;;;;21.30;72.60;;;;;;5032501;28;1281;-70
2021/06/28 05:49:50;;;;;;;;;;;21.30;72.60;;;;;;5032717;28;1073;-70
2021/06/28 05:52:19;;;;;;;;;;;21.30;72.50;;;;;;5032767;28;1041;-70
2021/06/28 05:54:44;;;;;;;;;;;21.30;72.50;;;;;;5015320;28;1111;-70
2021/06/28 05:57:10;;;;;;;;;;;21.30;72.50;;;;;;5031956;28;1371;-70
2021/06/28 05:59:35;;;;;;;;;;;21.40;73.30;;;;;;5029581;28;3007;-70
2021/06/28 06:02:02;;;;;;;;;;;21.30;72.50;;;;;;5035726;28;1116;-70
2021/06/28 06:04:27;;;;;;;;;;;21.30;72.50;;;;;;5026344;28;1216;-70
2021/06/28 06:06:52;;;;;;;;;;;21.30;72.50;;;;;;5036947;28;1890;-70
2021/06/28 06:09:18;;;;;;;;;;;21.30;72.50;;;;;;5031932;28;1072;-70
2021/06/28 06:11:43;;;;;;;;;;;21.30;72.50;;;;;;5032189;28;1174;-70
2021/06/28 06:14:09;;;;;;;;;;;21.30;72.50;;;;;;5040179;28;1219;-70
2021/06/28 06:16:34;;;;;;;;;;;21.30;72.50;;;;;;5050641;28;1214;-70
2021/06/28 06:18:59;;;;;;;;;;;21.30;72.50;;;;;;5034299;28;1151;-70
2021/06/28 06:21:25;;;;;;;;;;;21.30;72.40;;;;;;5052455;28;1124;-70
2021/06/28 06:23:50;;;;;;;;;;;21.30;72.40;;;;;;5021825;28;1062;-70
2021/06/28 06:26:16;;;;;;;;;;;21.30;72.40;;;;;;5029943;28;1914;-70
2021/06/28 06:28:42;;;;;;;;;;;21.30;72.50;;;;;;5031780;28;1108;-69
2021/06/28 06:31:07;;;;;;;;;;;21.30;72.50;;;;;;5032776;28;1112;-69
2021/06/28 06:33:32;;;;;;;;;;;21.30;72.50;;;;;;5031365;28;1159;-70
2021/06/28 06:35:58;;;;;;;;;;;21.30;72.50;;;;;;5031848;28;1264;-70
2021/06/28 06:38:23;;;;;;;;;;;21.30;72.50;;;;;;5032064;28;1160;-69
2021/06/28 06:40:49;;;;;;;;;;;21.30;72.50;;;;;;5013993;28;1223;-69
2021/06/28 06:43:15;;;;;;;;;;;21.30;72.50;;;;;;5031415;28;1288;-68
2021/06/28 06:45:41;;;;;;;;;;;21.30;72.50;;;;;;5031964;28;1964;-68
2021/06/28 06:48:06;;;;;;;;;;;21.30;72.50;;;;;;5031626;28;1068;-68
2021/06/28 06:50:32;;;;;;;;;;;21.30;72.60;;;;;;5013626;28;1152;-70
2021/06/28 06:52:57;;;;;;;;;;;21.30;72.50;;;;;;5031134;28;1040;-70
2021/06/28 06:55:24;;;;;;;;;;;21.30;72.60;;;;;;5031407;28;1148;-69
2021/06/28 06:57:50;;;;;;;;;;;21.30;72.60;;;;;;5031701;28;1245;-69
2021/06/28 07:00:16;;;;;;;;;;;21.30;72.60;;;;;;5031762;28;1049;-71
2021/06/28 07:02:42;;;;;;;;;;;21.30;72.60;;;;;;5031818;28;1061;-69
2021/06/28 07:05:07;;;;;;;;;;;21.30;72.60;;;;;;5030469;28;1918;-69
2021/06/28 07:07:35;;;;;;;;;;;21.30;72.60;;;;;;5032051;28;1181;-69
2021/06/28 07:10:00;;;;;;;;;;;21.30;72.60;;;;;;5030157;28;1140;-69
2021/06/28 07:12:25;;;;;;;;;;;21.30;72.60;;;;;;5026667;28;1096;-69
2021/06/28 07:14:51;;;;;;;;;;;21.30;72.60;;;;;;5050704;28;1040;-69
2021/06/28 07:17:16;;;;;;;;;;;21.30;72.60;;;;;;5051372;28;1298;-69
2021/06/28 07:19:42;;;;;;;;;;;21.30;72.60;;;;;;5050838;28;1096;-69
2021/06/28 07:22:08;;;;;;;;;;;21.30;72.60;;;;;;5051277;28;1155;-69
2021/06/28 07:24:33;;;;;;;;;;;21.40;72.70;;;;;;5050770;28;1147;-69
2021/06/28 07:26:58;;;;;;;;;;;21.30;72.60;;;;;;5051965;28;1918;-70
2021/06/28 07:29:24;;;;;;;;;;;21.30;72.60;;;;;;5055204;28;991;-69
2021/06/28 07:31:49;;;;;;;;;;;21.30;72.60;;;;;;5037157;28;1127;-69
2021/06/28 07:34:15;;;;;;;;;;;21.30;72.50;;;;;;5053962;28;1084;-69
2021/06/28 07:36:40;;;;;;;;;;;21.30;72.60;;;;;;5054831;28;1283;-69
2021/06/28 07:39:06;;;;;;;;;;;21.30;72.60;;;;;;5051988;28;1075;-69
2021/06/28 07:41:31;;;;;;;;;;;21.30;72.60;;;;;;5034840;28;1936;-70
2021/06/28 07:43:57;;;;;;;;;;;21.30;72.60;;;;;;5034225;28;1013;-69
2021/06/28 07:46:23;;;;;;;;;;;21.30;72.60;;;;;;5034080;28;1902;-69
2021/06/28 07:48:48;;;;;;;;;;;21.30;72.60;;;;;;5034710;28;1049;-69
2021/06/28 07:51:14;;;;;;;;;;;21.30;72.60;;;;;;5034738;28;1100;-69
2021/06/28 07:53:39;;;;;;;;;;;21.30;72.60;;;;;;5034047;28;1191;-69
2021/06/28 07:56:14;;;;;;;;;;;21.30;72.60;;;;;;5016603;28;1332;-70
2021/06/28 07:58:43;;;;;;;;;;;21.30;72.60;;;;;;5034794;28;1021;-69
2021/06/28 08:01:09;;;;;;;;;;;21.30;72.60;;;;;;5016210;28;1062;-69
2021/06/28 08:03:35;;;;;;;;;;;21.30;73.40;;;;;;5016228;28;1077;-69
2021/06/28 08:06:01;;;;;;;;;;;21.30;72.60;;;;;;5033839;28;1890;-69
2021/06/28 08:08:26;;;;;;;;;;;21.30;72.60;;;;;;5049453;28;1049;-70
2021/06/28 08:10:52;;;;;;;;;;;21.30;72.60;;;;;;5038285;28;1048;-69
2021/06/28 08:13:17;;;;;;;;;;;21.30;72.60;;;;;;5028996;28;1025;-69
2021/06/28 08:15:42;;;;;;;;;;;21.30;72.50;;;;;;5039247;28;1402;-69
2021/06/28 08:18:08;;;;;;;;;;;21.30;72.60;;;;;;5034602;28;1123;-70
2021/06/28 08:20:37;;;;;;;;;;;21.30;72.60;;;;;;5034610;28;1356;-70
2021/06/28 08:23:03;;;;;;;;;;;21.30;72.60;;;;;;5030807;28;1848;-69
2021/06/28 08:25:28;;;;;;;;;;;21.30;72.60;;;;;;5030093;28;1959;-69
2021/06/28 08:27:55;;;;;;;;;;;21.30;72.70;;;;;;5038929;28;1235;-70
2021/06/28 08:30:21;;;;;;;;;;;21.30;72.80;;;;;;5034097;28;1371;-70
2021/06/28 08:32:46;;;;;;;;;;;21.30;72.80;;;;;;5034203;28;1360;-69
2021/06/28 08:35:11;;;;;;;;;;;21.30;73.00;;;;;;5033766;28;1322;-69
2021/06/28 08:37:37;;;;;;;;;;;21.30;73.00;;;;;;5016447;28;1299;-69
2021/06/28 08:40:03;;;;;;;;;;;21.40;73.10;;;;;;5033407;28;1460;-69
2021/06/28 08:42:28;;;;;;;;;;;21.40;73.10;;;;;;5033898;28;1640;-69
2021/06/28 08:44:54;;;;;;;;;;;21.40;73.10;;;;;;5015341;28;1070;-69
2021/06/28 08:47:19;;;;;;;;;;;21.40;73.20;;;;;;5016233;28;1262;-69
2021/06/28 08:49:44;;;;;;;;;;;21.40;73.20;;;;;;5016360;28;1081;-70
2021/06/28 08:52:10;;;;;;;;;;;21.30;73.10;;;;;;5033767;28;1072;-70
2021/06/28 08:54:36;;;;;;;;;;;21.40;73.20;;;;;;5015471;28;1157;-69
2021/06/28 08:57:01;;;;;;;;;;;21.40;73.10;;;;;;5016247;28;1385;-69
2021/06/28 08:59:27;;;;;;;;;;;21.40;73.20;;;;;;5033285;28;1084;-70
2021/06/28 09:01:52;;;;;;;;;;;21.40;73.20;;;;;;5034044;28;1081;-70
2021/06/28 09:04:18;;;;;;;;;;;21.40;73.20;;;;;;5015131;28;1069;-69
2021/06/28 09:06:44;;;;;;;;;;;21.40;73.20;;;;;;5032382;28;1941;-69
2021/06/28 09:09:11;;;;;;;;;;;21.40;73.40;;;;;;5036669;28;1498;-69
2021/06/28 09:11:37;;;;;;;;;;;21.40;73.30;;;;;;5033666;28;1426;-70
2021/06/28 09:14:03;;;;;;;;;;;21.40;73.30;;;;;;5032947;28;1687;-70
2021/06/28 09:16:29;;;;;;;;;;;21.40;73.40;;;;;;5033072;28;1279;-70
2021/06/28 09:19:04;;;;;;;;;;;21.40;73.30;;;;;;5015511;28;1042;-70
2021/06/28 09:21:32;;;;;;;;;;;21.40;73.20;;;;;;5033056;28;1081;-70
2021/06/28 09:23:59;;;;;;;;;;;21.40;73.30;;;;;;5034955;28;931;-69
2021/06/28 09:26:28;;;;;;;;;;;21.40;73.20;;;;;;5032897;28;1914;-69
2021/06/28 09:28:54;;;;;;;;;;;21.40;73.20;;;;;;5034530;28;1217;-69
2021/06/28 09:31:33;;;;;;;;;;;21.40;73.20;;;;;;5034983;28;1100;-69
2021/06/28 09:34:03;;;;;;;;;;;21.40;73.20;;;;;;5033663;28;1032;-70
2021/06/28 09:36:28;;;;;;;;;;;21.40;73.20;;;;;;5051800;28;1292;-70
2021/06/28 09:38:53;;;;;;;;;;;21.40;73.20;;;;;;5045793;28;1072;-70
2021/06/28 09:41:26;;;;;;;;;;;21.40;73.20;;;;;;5032971;28;1120;-70
2021/06/28 09:43:52;;;;;;;;;;;21.40;73.10;;;;;;5032320;28;1084;-69
2021/06/28 09:46:21;;;;;;;;;;;21.40;73.10;;;;;;4994097;28;1906;-69
2021/06/28 09:48:50;;;;;;;;;;;21.40;73.10;;;;;;5025322;28;1513;-69
2021/06/28 09:51:20;;;;;;;;;;;21.40;73.10;;;;;;5032292;28;1287;-69
2021/06/28 09:53:49;;;;;;;;;;;21.40;73.10;;;;;;5031461;28;1084;-69
2021/06/28 09:56:48;;;;;;;;;;;21.40;73.10;;;;;;5032914;28;1271;-69
2021/06/28 09:59:19;;;;;;;;;;;21.40;73.80;;;;;;4975937;28;1280;-70
2021/06/28 10:01:44;;;;;;;;;;;21.40;73.10;;;;;;5032731;28;1088;-70
2021/06/28 10:04:10;;;;;;;;;;;21.40;73.00;;;;;;5031663;28;1124;-69
2021/06/28 10:06:37;;;;;;;;;;;21.40;73.00;;;;;;5032536;28;1960;-69
2021/06/28 10:09:04;;;;;;;;;;;21.40;73.00;;;;;;5031381;28;1180;-69
2021/06/28 10:11:29;;;;;;;;;;;21.40;73.00;;;;;;5032910;28;1107;-69
2021/06/28 10:14:02;;;;;;;;;;;21.40;73.00;;;;;;5014017;28;1140;-69
2021/06/28 10:16:28;;;;;;;;;;;21.40;73.00;;;;;;5014375;28;1350;-69
2021/06/28 10:18:54;;;;;;;;;;;21.40;73.00;;;;;;5032427;28;1053;-69
2021/06/28 10:21:19;;;;;;;;;;;21.40;73.00;;;;;;5031951;28;1183;-69
2021/06/28 10:23:45;;;;;;;;;;;21.40;72.90;;;;;;5031816;28;1097;-69
2021/06/28 10:26:11;;;;;;;;;;;21.40;72.90;;;;;;5013935;28;1949;-69
2021/06/28 10:28:36;;;;;;;;;;;21.40;73.00;;;;;;5032902;28;1135;-69
2021/06/28 10:31:02;;;;;;;;;;;21.40;72.90;;;;;;5014194;28;1081;-69
2021/06/28 10:33:28;;;;;;;;;;;21.40;72.90;;;;;;5024633;28;1979;-69
2021/06/28 10:35:58;;;;;;;;;;;21.40;73.70;;;;;;5024037;28;1636;-69
2021/06/28 10:38:23;;;;;;;;;;;21.40;72.90;;;;;;5008760;28;1324;-69
2021/06/28 10:40:50;;;;;;;;;;;21.40;72.90;;;;;;5025622;28;1239;-69
2021/06/28 10:43:32;;;;;;;;;;;21.40;72.90;;;;;;5024329;28;1163;-69
2021/06/28 10:45:57;;;;;;;;;;;21.40;72.40;;;;;;5031368;28;1966;-69
2021/06/28 10:48:24;;;;;;;;;;;21.40;70.80;;;;;;5014041;28;1085;-69
2021/06/28 10:50:51;;;;;;;;;;;21.40;69.50;;;;;;5038675;28;1202;-69
2021/06/28 10:53:39;;;;;;;;;;;21.40;69.60;;;;;;5031416;28;1072;-69
2021/06/28 10:56:30;;;;;;;;;;;21.40;70.90;;;;;;5031865;28;1336;-69
2021/06/28 10:58:55;;;;;;;;;;;21.40;70.80;;;;;;5021655;28;1325;-70
2021/06/28 11:01:34;;;;;;;;;;;21.40;70.70;;;;;;5032008;28;1139;-70
2021/06/28 11:04:03;;;;;;;;;;;21.40;71.10;;;;;;5035409;28;1184;-70
2021/06/28 11:06:29;;;;;;;;;;;21.40;71.50;;;;;;5034902;28;1902;-69
2021/06/28 11:09:07;;;;;;;;;;;21.40;71.50;;;;;;5034520;28;1151;-70
2021/06/28 11:11:42;;;;;;;;;;;21.40;71.30;;;;;;5016962;28;1061;-70
2021/06/28 11:14:07;;;;;;;;;;;21.40;71.60;;;;;;5035259;28;1057;-70
2021/06/28 11:16:33;;;;;;;;;;;21.40;71.80;;;;;;5035362;28;1335;-70
2021/06/28 11:18:59;;;;;;;;;;;21.40;72.20;;;;;;5034970;28;1120;-70
2021/06/28 11:21:40;;;;;;;;;;;21.40;71.80;;;;;;5035526;28;1108;-69
2021/06/28 11:24:06;;;;;;;;;;;21.40;71.70;;;;;;5034966;28;1057;-70
2021/06/28 11:26:32;;;;;;;;;;;21.40;72.10;;;;;;5035129;28;1910;-69
2021/06/28 11:28:58;;;;;;;;;;;21.40;72.20;;;;;;5035295;28;1247;-69
2021/06/28 11:31:27;;;;;;;;;;;21.40;72.50;;;;;;5017476;28;1318;-70
2021/06/28 11:33:58;;;;;;;;;;;21.40;72.60;;;;;;5034573;28;1080;-69
2021/06/28 11:36:23;;;;;;;;;;;21.40;72.70;;;;;;5035282;28;1252;-68
2021/06/28 11:38:49;;;;;;;;;;;21.40;72.80;;;;;;5035102;28;1084;-68
2021/06/28 11:41:15;;;;;;;;;;;21.50;72.90;;;;;;5017866;28;1112;-68
2021/06/28 11:43:44;;;;;;;;;;;21.40;72.70;;;;;;5016704;28;1156;-68
2021/06/28 11:46:11;;;;;;;;;;;21.50;72.80;;;;;;5017112;28;1961;-68
2021/06/28 11:48:38;;;;;;;;;;;21.40;72.90;;;;;;5016656;28;1144;-68
2021/06/28 11:51:33;;;;;;;;;;;21.50;72.90;;;;;;5017346;28;1149;-68
2021/06/28 11:54:00;;;;;;;;;;;21.50;73.20;;;;;;5003285;28;1315;-69
2021/06/28 11:56:27;;;;;;;;;;;21.50;73.10;;;;;;5034904;28;1268;-69
2021/06/28 11:59:01;;;;;;;;;;;21.50;73.10;;;;;;5016806;28;1155;-70
2021/06/28 12:01:31;;;;;;;;;;;21.50;73.20;;;;;;5031288;28;2139;-69
2021/06/28 12:03:57;;;;;;;;;;;21.50;73.30;;;;;;5024758;28;1338;-69
2021/06/28 12:06:25;;;;;;;;;;;21.50;73.30;;;;;;5026667;28;1938;-68
2021/06/28 12:09:01;;;;;;;;;;;21.50;73.50;;;;;;5042165;28;1182;-68
2021/06/28 12:11:27;;;;;;;;;;;21.50;73.50;;;;;;5029603;28;1187;-69
2021/06/28 12:13:52;;;;;;;;;;;21.50;73.50;;;;;;5034182;28;1186;-68
2021/06/28 12:16:27;;;;;;;;;;;21.50;73.60;;;;;;5040660;28;1274;-68
2021/06/28 12:19:02;;;;;;;;;;;21.50;73.60;;;;;;5040054;28;1140;-68
2021/06/28 12:21:28;;;;;;;;;;;21.50;73.70;;;;;;5053733;28;1076;-68
2021/06/28 12:24:10;;;;;;;;;;;21.50;73.80;;;;;;5054375;28;1120;-68
2021/06/28 12:26:35;;;;;;;;;;;21.50;73.70;;;;;;5036330;28;1983;-69
2021/06/28 12:29:20;;;;;;;;;;;21.50;73.80;;;;;;5054381;28;1083;-69
2021/06/28 12:31:45;;;;;;;;;;;21.50;73.70;;;;;;5053536;28;1104;-69
2021/06/28 12:34:10;;;;;;;;;;;21.50;73.60;;;;;;5053588;28;1135;-69
2021/06/28 12:36:36;;;;;;;;;;;21.50;73.50;;;;;;5035968;28;1284;-69
2021/06/28 12:39:01;;;;;;;;;;;21.50;73.40;;;;;;5034075;28;1416;-69
2021/06/28 12:41:27;;;;;;;;;;;21.50;73.10;;;;;;5016229;28;1057;-68
2021/06/28 12:43:52;;;;;;;;;;;21.50;72.30;;;;;;5033202;28;1104;-69
2021/06/28 12:46:20;;;;;;;;;;;21.50;72.40;;;;;;5015905;28;1895;-69
2021/06/28 12:48:45;;;;;;;;;;;21.50;72.50;;;;;;5016517;28;1194;-68
2021/06/28 12:51:11;;;;;;;;;;;21.50;72.60;;;;;;5016189;28;1085;-69
2021/06/28 12:53:36;;;;;;;;;;;21.50;72.90;;;;;;5015275;28;1089;-68
2021/06/28 12:56:06;;;;;;;;;;;21.50;73.00;;;;;;5033421;28;1294;-68
2021/06/28 12:58:44;;;;;;;;;;;21.50;72.90;;;;;;5016090;28;1077;-68
2021/06/28 13:01:09;;;;;;;;;;;21.50;72.90;;;;;;5033964;28;1124;-69
2021/06/28 13:03:35;;;;;;;;;;;21.50;72.70;;;;;;5032692;28;1135;-69
2021/06/28 13:06:01;;;;;;;;;;;21.50;72.90;;;;;;5015736;28;1906;-69
2021/06/28 13:08:30;;;;;;;;;;;21.50;72.90;;;;;;5015690;28;1535;-69
2021/06/28 13:10:58;;;;;;;;;;;21.50;72.90;;;;;;5033316;28;1148;-69
2021/06/28 13:13:24;;;;;;;;;;;21.50;72.90;;;;;;5032721;28;1072;-69
2021/06/28 13:16:10;;;;;;;;;;;21.60;73.00;;;;;;5014968;28;1264;-68
2021/06/28 13:18:36;;;;;;;;;;;21.60;73.00;;;;;;5033081;28;1143;-69
2021/06/28 13:21:01;;;;;;;;;;;21.50;72.70;;;;;;5015950;28;1069;-68
2021/06/28 13:23:27;;;;;;;;;;;21.60;72.80;;;;;;5032477;28;1049;-69
2021/06/28 13:25:52;;;;;;;;;;;21.60;72.70;;;;;;5032254;28;1906;-69
2021/06/28 13:28:18;;;;;;;;;;;21.50;72.50;;;;;;5015147;28;1081;-69
2021/06/28 13:30:43;;;;;;;;;;;21.60;72.40;;;;;;5033044;28;1069;-68
2021/06/28 13:33:10;;;;;;;;;;;21.60;72.40;;;;;;5032473;28;1195;-68
2021/06/28 13:35:40;;;;;;;;;;;21.50;72.00;;;;;;5032675;28;1297;-68
2021/06/28 13:38:09;;;;;;;;;;;21.60;72.50;;;;;;5030121;28;1708;-70
2021/06/28 13:40:35;;;;;;;;;;;21.60;72.50;;;;;;4986575;28;1099;-70
2021/06/28 13:43:00;;;;;;;;;;;21.60;73.00;;;;;;5030163;28;1113;-70
2021/06/28 13:45:29;;;;;;;;;;;21.60;72.30;;;;;;5013729;28;1922;-68
2021/06/28 13:48:20;;;;;;;;;;;21.60;72.50;;;;;;5014387;28;1339;-70
2021/06/28 13:50:46;;;;;;;;;;;21.60;72.60;;;;;;5028004;28;1191;-70
2021/06/28 13:53:12;;;;;;;;;;;21.60;72.50;;;;;;5013699;28;1081;-69
2021/06/28 13:55:41;;;;;;;;;;;21.60;72.50;;;;;;5031229;28;1269;-69
2021/06/28 13:58:07;;;;;;;;;;;21.60;72.70;;;;;;5013967;28;1085;-68
2021/06/28 14:00:40;;;;;;;;;;;21.50;73.40;;;;;;5014128;28;1137;-69
2021/06/28 14:03:05;;;;;;;;;;;21.60;72.80;;;;;;5030875;28;1061;-69
2021/06/28 14:05:31;;;;;;;;;;;21.60;72.80;;;;;;5031583;28;1951;-69
2021/06/28 14:07:56;;;;;;;;;;;21.60;72.80;;;;;;5031208;28;1056;-68
2021/06/28 14:10:22;;;;;;;;;;;21.60;72.90;;;;;;5031230;28;1065;-69
2021/06/28 14:12:47;;;;;;;;;;;21.60;73.00;;;;;;5032020;28;1061;-69
2021/06/28 14:15:13;;;;;;;;;;;21.60;73.10;;;;;;5031308;28;1069;-71
2021/06/28 14:17:39;;;;;;;;;;;21.60;73.30;;;;;;5026692;22;2166;-65
2021/06/28 14:20:04;;;;;;;;;;;21.60;73.20;;;;;;5021661;28;1151;-66
2021/06/28 14:22:32;;;;;;;;;;;21.60;73.40;;;;;;5032166;28;1049;-66
2021/06/28 14:24:58;;;;;;;;;;;21.60;73.40;;;;;;5030739;28;1199;-65
2021/06/28 14:27:24;;;;;;;;;;;21.60;74.20;;;;;;5032400;28;1902;-66
2021/06/28 14:29:49;;;;;;;;;;;21.60;73.70;;;;;;5032007;28;1152;-65